createdAt,value
2016-05-29T00:00:06.635Z,21.7
2016-05-29T00:00:16.463Z,21.7
2016-05-29T00:00:26.604Z,21.6
2016-05-29T00:00:36.588Z,21.7
2016-05-29T00:00:46.435Z,21.7
2016-05-29T00:00:56.560Z,21.7
2016-05-29T00:01:06.404Z,21.6
2016-05-29T00:01:16.545Z,21.7
2016-05-29T00:01:26.545Z,21.7
2016-05-29T00:01:45.454Z,21.7
2016-05-29T00:01:50.782Z,21.7
2016-05-29T00:02:00.766Z,21.6
2016-05-29T00:02:10.766Z,21.7
2016-05-29T00:02:20.751Z,21.7
2016-05-29T00:02:30.735Z,21.7
2016-05-29T00:02:40.579Z,21.6
2016-05-29T00:02:50.721Z,21.6
2016-05-29T00:03:00.565Z,21.6
2016-05-29T00:03:10.534Z,21.7
2016-05-29T00:03:20.675Z,21.6
2016-05-29T00:03:30.690Z,21.7
2016-05-29T00:03:40.675Z,21.5
2016-05-29T00:03:50.662Z,21.6
2016-05-29T00:04:00.646Z,21.7
2016-05-29T00:04:10.631Z,21.6
2016-05-29T00:04:20.615Z,21.6
2016-05-29T00:04:30.631Z,21.5
2016-05-29T00:04:40.599Z,21.6
2016-05-29T00:04:50.587Z,21.6
2016-05-29T00:05:01.384Z,21.6
2016-05-29T00:05:10.587Z,21.5
2016-05-29T00:05:21.102Z,21.5
2016-05-29T00:05:30.556Z,21.6
2016-05-29T00:05:40.649Z,21.7
2016-05-29T00:05:51.215Z,21.6
2016-05-29T00:06:00.527Z,21.6
2016-05-29T00:06:10.512Z,21.5
2016-05-29T00:06:20.496Z,21.5
2016-05-29T00:06:30.496Z,21.5
2016-05-29T00:06:40.480Z,21.6
2016-05-29T00:06:50.467Z,21.5
2016-05-29T00:07:00.467Z,21.7
2016-05-29T00:07:10.295Z,21.5
2016-05-29T00:07:20.436Z,21.5
2016-05-29T00:07:30.436Z,21.5
2016-05-29T00:07:40.420Z,21.5
2016-05-29T00:07:50.423Z,21.5
2016-05-29T00:08:00.407Z,21.6
2016-05-29T00:08:10.392Z,21.5
2016-05-29T00:08:20.392Z,21.5
2016-05-29T00:08:30.376Z,21.6
2016-05-29T00:08:40.345Z,21.6
2016-05-29T00:08:50.348Z,21.5
2016-05-29T00:09:00.348Z,21.6
2016-05-29T00:09:10.317Z,21.5
2016-05-29T00:09:20.317Z,21.5
2016-05-29T00:09:30.145Z,21.6
2016-05-29T00:09:40.301Z,21.5
2016-05-29T00:09:50.287Z,21.5
2016-05-29T00:10:00.115Z,21.5
2016-05-29T00:10:10.272Z,21.4
2016-05-29T00:10:20.256Z,21.5
2016-05-29T00:10:30.240Z,21.6
2016-05-29T00:10:40.069Z,21.6
2016-05-29T00:10:50.228Z,21.5
2016-05-29T00:11:00.197Z,21.5
2016-05-29T00:11:10.212Z,21.6
2016-05-29T00:11:20.197Z,21.5
2016-05-29T00:11:30.165Z,21.6
2016-05-29T00:11:40.165Z,21.4
2016-05-29T00:11:50.167Z,21.5
2016-05-29T00:12:00.152Z,21.4
2016-05-29T00:12:10.136Z,21.4
2016-05-29T00:12:19.964Z,21.5
2016-05-29T00:12:30.120Z,21.5
2016-05-29T00:12:40.105Z,21.5
2016-05-29T00:12:50.093Z,21.4
2016-05-29T00:12:59.937Z,21.4
2016-05-29T00:13:10.093Z,21.3
2016-05-29T00:13:20.062Z,21.4
2016-05-29T00:13:30.046Z,21.5
2016-05-29T00:13:40.046Z,21.3
2016-05-29T00:13:50.033Z,21.4
2016-05-29T00:14:00.017Z,21.4
2016-05-29T00:14:10.001Z,21.4
2016-05-29T00:14:19.986Z,21.3
2016-05-29T00:14:29.986Z,21.4
2016-05-29T00:14:39.830Z,21.4
2016-05-29T00:14:49.972Z,21.5
2016-05-29T00:14:59.957Z,21.3
2016-05-29T00:15:09.941Z,21.4
2016-05-29T00:15:19.925Z,21.4
2016-05-29T00:15:29.925Z,21.3
2016-05-29T00:15:39.925Z,21.3
2016-05-29T00:15:49.913Z,21.4
2016-05-29T00:15:59.897Z,21.4
2016-05-29T00:16:09.881Z,21.3
2016-05-29T00:16:19.866Z,21.4
2016-05-29T00:16:29.850Z,21.4
2016-05-29T00:16:39.850Z,21.3
2016-05-29T00:16:49.838Z,21.3
2016-05-29T00:16:59.822Z,21.3
2016-05-29T00:17:09.822Z,21.3
2016-05-29T00:17:19.822Z,21.3
2016-05-29T00:17:29.791Z,21.3
2016-05-29T00:17:39.791Z,21.4
2016-05-29T00:17:49.778Z,21.4
2016-05-29T00:17:59.762Z,21.4
2016-05-29T00:18:09.762Z,21.3
2016-05-29T00:18:19.591Z,21.3
2016-05-29T00:18:29.731Z,21.4
2016-05-29T00:18:39.716Z,21.3
2016-05-29T00:18:49.719Z,21.3
2016-05-29T00:18:59.703Z,21.3
2016-05-29T00:19:09.687Z,21.3
2016-05-29T00:19:19.687Z,21.3
2016-05-29T00:19:29.672Z,21.4
2016-05-29T00:19:39.672Z,21.2
2016-05-29T00:19:49.502Z,21.3
2016-05-29T00:20:00.267Z,21.3
2016-05-29T00:20:09.627Z,21.3
2016-05-29T00:20:19.799Z,21.2
2016-05-29T00:20:30.033Z,21.3
2016-05-29T00:20:39.674Z,21.2
2016-05-29T00:20:49.442Z,21.3
2016-05-29T00:20:59.739Z,21.2
2016-05-29T00:21:09.567Z,21.3
2016-05-29T00:21:19.552Z,21.3
2016-05-29T00:21:29.536Z,21.2
2016-05-29T00:21:39.536Z,21.3
2016-05-29T00:21:49.367Z,21.3
2016-05-29T00:21:59.508Z,21.4
2016-05-29T00:22:09.508Z,21.3
2016-05-29T00:22:19.508Z,21.3
2016-05-29T00:22:29.477Z,21.2
2016-05-29T00:22:39.461Z,21.3
2016-05-29T00:22:49.463Z,21.3
2016-05-29T00:22:59.447Z,21.3
2016-05-29T00:23:09.432Z,21.3
2016-05-29T00:23:19.432Z,21.3
2016-05-29T00:23:29.432Z,21.3
2016-05-29T00:23:39.416Z,21.4
2016-05-29T00:23:49.247Z,21.3
2016-05-29T00:23:59.388Z,21.3
2016-05-29T00:24:09.232Z,21.3
2016-05-29T00:24:19.372Z,21.3
2016-05-29T00:24:29.357Z,21.3
2016-05-29T00:24:39.341Z,21.3
2016-05-29T00:24:49.328Z,21.5
2016-05-29T00:24:59.328Z,21.3
2016-05-29T00:25:09.328Z,21.4
2016-05-29T00:25:19.297Z,21.3
2016-05-29T00:25:29.141Z,21.3
2016-05-29T00:25:39.125Z,21.2
2016-05-29T00:25:49.283Z,21.4
2016-05-29T00:25:59.112Z,21.4
2016-05-29T00:26:09.252Z,21.3
2016-05-29T00:26:19.237Z,21.4
2016-05-29T00:26:29.221Z,21.3
2016-05-29T00:26:39.221Z,21.4
2016-05-29T00:26:49.052Z,21.3
2016-05-29T00:26:59.193Z,21.3
2016-05-29T00:27:09.193Z,21.3
2016-05-29T00:27:19.177Z,21.4
2016-05-29T00:27:29.177Z,21.3
2016-05-29T00:27:39.161Z,21.4
2016-05-29T00:27:49.148Z,21.4
2016-05-29T00:27:59.132Z,21.3
2016-05-29T00:28:09.132Z,21.4
2016-05-29T00:28:19.132Z,21.3
2016-05-29T00:28:28.945Z,21.4
2016-05-29T00:28:39.101Z,21.4
2016-05-29T00:28:49.088Z,21.4
2016-05-29T00:28:59.088Z,21.4
2016-05-29T00:29:09.057Z,21.4
2016-05-29T00:29:18.901Z,21.4
2016-05-29T00:29:29.041Z,21.4
2016-05-29T00:29:39.026Z,21.4
2016-05-29T00:29:49.029Z,21.5
2016-05-29T00:29:59.013Z,21.3
2016-05-29T00:30:08.998Z,21.3
2016-05-29T00:30:18.982Z,21.3
2016-05-29T00:30:28.826Z,21.5
2016-05-29T00:30:38.966Z,21.5
2016-05-29T00:30:48.969Z,21.4
2016-05-29T00:30:58.797Z,21.4
2016-05-29T00:31:08.938Z,21.5
2016-05-29T00:31:18.922Z,21.4
2016-05-29T00:31:28.922Z,21.5
2016-05-29T00:31:38.766Z,21.4
2016-05-29T00:31:48.893Z,21.5
2016-05-29T00:31:58.878Z,21.4
2016-05-29T00:32:08.878Z,21.5
2016-05-29T00:32:18.862Z,21.5
2016-05-29T00:32:28.846Z,21.4
2016-05-29T00:32:38.846Z,21.4
2016-05-29T00:32:48.834Z,21.5
2016-05-29T00:32:58.834Z,21.6
2016-05-29T00:33:08.834Z,21.5
2016-05-29T00:33:18.802Z,21.5
2016-05-29T00:33:28.802Z,21.3
2016-05-29T00:33:38.771Z,21.4
2016-05-29T00:33:48.790Z,21.4
2016-05-29T00:33:58.774Z,21.4
2016-05-29T00:34:08.759Z,21.5
2016-05-29T00:34:18.727Z,21.4
2016-05-29T00:34:28.727Z,21.3
2016-05-29T00:34:38.712Z,21.4
2016-05-29T00:34:48.715Z,21.4
2016-05-29T00:34:59.043Z,21.4
2016-05-29T00:35:08.699Z,21.4
2016-05-29T00:35:18.683Z,21.4
2016-05-29T00:35:28.668Z,21.4
2016-05-29T00:35:38.496Z,21.3
2016-05-29T00:35:48.795Z,21.3
2016-05-29T00:35:58.904Z,21.4
2016-05-29T00:36:08.482Z,21.4
2016-05-29T00:36:18.623Z,21.5
2016-05-29T00:36:28.607Z,21.4
2016-05-29T00:36:38.592Z,21.4
2016-05-29T00:36:48.579Z,21.4
2016-05-29T00:36:58.563Z,21.4
2016-05-29T00:37:08.563Z,21.5
2016-05-29T00:37:18.563Z,21.4
2016-05-29T00:37:28.532Z,21.3
2016-05-29T00:37:38.376Z,21.4
2016-05-29T00:37:48.362Z,21.5
2016-05-29T00:37:58.503Z,21.4
2016-05-29T00:38:08.503Z,21.4
2016-05-29T00:38:18.487Z,21.4
2016-05-29T00:38:28.487Z,21.5
2016-05-29T00:38:38.472Z,21.4
2016-05-29T00:38:48.459Z,21.5
2016-05-29T00:38:58.459Z,21.4
2016-05-29T00:39:08.443Z,21.4
2016-05-29T00:39:18.428Z,21.5
2016-05-29T00:39:28.443Z,21.5
2016-05-29T00:39:38.397Z,21.4
2016-05-29T00:39:48.400Z,21.3
2016-05-29T00:39:58.384Z,21.5
2016-05-29T00:40:08.384Z,21.3
2016-05-29T00:40:18.368Z,21.5
2016-05-29T00:40:28.368Z,21.5
2016-05-29T00:40:38.353Z,21.5
2016-05-29T00:40:48.324Z,21.4
2016-05-29T00:40:58.324Z,21.4
2016-05-29T00:41:08.309Z,21.4
2016-05-29T00:41:18.324Z,21.6
2016-05-29T00:41:28.293Z,21.4
2016-05-29T00:41:38.278Z,21.4
2016-05-29T00:41:48.264Z,21.4
2016-05-29T00:41:58.108Z,21.3
2016-05-29T00:42:08.092Z,21.3
2016-05-29T00:42:18.233Z,21.5
2016-05-29T00:42:28.233Z,21.4
2016-05-29T00:42:38.217Z,21.5
2016-05-29T00:42:48.204Z,21.4
2016-05-29T00:42:58.204Z,21.4
2016-05-29T00:43:08.033Z,21.4
2016-05-29T00:43:18.173Z,21.5
2016-05-29T00:43:28.158Z,21.3
2016-05-29T00:43:38.158Z,21.4
2016-05-29T00:43:48.145Z,21.4
2016-05-29T00:43:58.129Z,21.4
2016-05-29T00:44:08.129Z,21.6
2016-05-29T00:44:18.114Z,21.4
2016-05-29T00:44:27.942Z,21.5
2016-05-29T00:44:37.942Z,21.4
2016-05-29T00:44:48.084Z,21.4
2016-05-29T00:44:58.069Z,21.5
2016-05-29T00:45:08.053Z,21.4
2016-05-29T00:45:18.053Z,21.4
2016-05-29T00:45:28.038Z,21.5
2016-05-29T00:45:38.022Z,21.5
2016-05-29T00:45:48.009Z,21.5
2016-05-29T00:45:58.009Z,21.5
2016-05-29T00:46:07.994Z,21.5
2016-05-29T00:46:17.978Z,21.5
2016-05-29T00:46:27.978Z,21.5
2016-05-29T00:46:37.962Z,21.5
2016-05-29T00:46:47.965Z,21.5
2016-05-29T00:46:57.950Z,21.5
2016-05-29T00:47:07.934Z,21.7
2016-05-29T00:47:17.919Z,21.6
2016-05-29T00:47:27.919Z,21.6
2016-05-29T00:47:37.919Z,21.5
2016-05-29T00:47:47.889Z,21.6
2016-05-29T00:47:57.733Z,21.6
2016-05-29T00:48:07.874Z,21.5
2016-05-29T00:48:17.858Z,21.6
2016-05-29T00:48:27.842Z,21.5
2016-05-29T00:48:37.686Z,21.5
2016-05-29T00:48:47.845Z,21.4
2016-05-29T00:48:57.814Z,21.6
2016-05-29T00:49:07.814Z,21.5
2016-05-29T00:49:17.799Z,21.6
2016-05-29T00:49:27.783Z,21.6
2016-05-29T00:49:37.783Z,21.5
2016-05-29T00:49:47.611Z,21.6
2016-05-29T00:49:57.755Z,21.5
2016-05-29T00:50:07.880Z,21.4
2016-05-29T00:50:17.880Z,21.5
2016-05-29T00:50:28.270Z,21.5
2016-05-29T00:50:37.786Z,21.5
2016-05-29T00:50:48.241Z,21.6
2016-05-29T00:50:58.022Z,21.6
2016-05-29T00:51:07.679Z,21.5
2016-05-29T00:51:17.913Z,21.5
2016-05-29T00:51:27.663Z,21.6
2016-05-29T00:51:37.491Z,21.6
2016-05-29T00:51:47.632Z,21.6
2016-05-29T00:51:57.636Z,21.6
2016-05-29T00:52:07.620Z,21.4
2016-05-29T00:52:17.604Z,21.6
2016-05-29T00:52:27.604Z,21.5
2016-05-29T00:52:37.589Z,21.6
2016-05-29T00:52:47.573Z,21.5
2016-05-29T00:52:57.419Z,21.6
2016-05-29T00:53:07.403Z,21.5
2016-05-29T00:53:17.544Z,21.6
2016-05-29T00:53:27.544Z,21.6
2016-05-29T00:53:37.528Z,21.5
2016-05-29T00:53:47.528Z,21.5
2016-05-29T00:53:57.500Z,21.6
2016-05-29T00:54:07.500Z,21.6
2016-05-29T00:54:17.484Z,21.6
2016-05-29T00:54:27.328Z,21.5
2016-05-29T00:54:37.469Z,21.5
2016-05-29T00:54:47.453Z,21.6
2016-05-29T00:54:57.440Z,21.7
2016-05-29T00:55:07.440Z,21.6
2016-05-29T00:55:17.424Z,21.6
2016-05-29T00:55:27.408Z,21.6
2016-05-29T00:55:37.408Z,21.6
2016-05-29T00:55:47.236Z,21.6
2016-05-29T00:55:57.380Z,21.5
2016-05-29T00:56:07.364Z,21.6
2016-05-29T00:56:17.364Z,21.6
2016-05-29T00:56:27.349Z,21.6
2016-05-29T00:56:37.333Z,21.6
2016-05-29T00:56:47.333Z,21.6
2016-05-29T00:56:57.320Z,21.7
2016-05-29T00:57:07.148Z,21.7
2016-05-29T00:57:17.288Z,21.7
2016-05-29T00:57:27.288Z,21.6
2016-05-29T00:57:37.273Z,21.6
2016-05-29T00:57:47.273Z,21.6
2016-05-29T00:57:57.261Z,21.7
2016-05-29T00:58:07.245Z,21.7
2016-05-29T00:58:17.230Z,21.6
2016-05-29T00:58:27.230Z,21.5
2016-05-29T00:58:37.214Z,21.4
2016-05-29T00:58:47.042Z,21.7
2016-05-29T00:58:57.185Z,21.7
2016-05-29T00:59:07.185Z,21.7
2016-05-29T00:59:17.169Z,21.7
2016-05-29T00:59:27.154Z,21.7
2016-05-29T00:59:37.154Z,21.7
2016-05-29T00:59:47.138Z,21.7
2016-05-29T00:59:57.124Z,21.7
2016-05-29T01:00:07.124Z,21.6
2016-05-29T01:00:16.968Z,21.7
2016-05-29T01:00:27.093Z,21.6
2016-05-29T01:00:37.093Z,21.6
2016-05-29T01:00:47.078Z,21.7
2016-05-29T01:00:57.066Z,21.6
2016-05-29T01:01:06.910Z,21.7
2016-05-29T01:01:17.050Z,21.6
2016-05-29T01:01:27.035Z,21.6
2016-05-29T01:01:37.019Z,21.7
2016-05-29T01:01:47.019Z,21.7
2016-05-29T01:01:57.005Z,21.7
2016-05-29T01:02:07.005Z,21.7
2016-05-29T01:02:16.974Z,21.7
2016-05-29T01:02:26.974Z,21.7
2016-05-29T01:02:36.959Z,21.7
2016-05-29T01:02:46.959Z,21.7
2016-05-29T01:02:56.946Z,21.8
2016-05-29T01:03:06.930Z,21.7
2016-05-29T01:03:16.930Z,21.6
2016-05-29T01:03:26.915Z,21.6
2016-05-29T01:03:36.899Z,21.6
2016-05-29T01:03:46.727Z,21.7
2016-05-29T01:03:56.885Z,21.6
2016-05-29T01:04:06.870Z,21.7
2016-05-29T01:04:16.698Z,21.7
2016-05-29T01:04:26.854Z,21.7
2016-05-29T01:04:36.854Z,21.7
2016-05-29T01:04:46.823Z,21.7
2016-05-29T01:04:56.826Z,21.7
2016-05-29T01:05:06.670Z,21.7
2016-05-29T01:05:17.123Z,21.7
2016-05-29T01:05:26.654Z,21.7
2016-05-29T01:05:38.232Z,21.7
2016-05-29T01:05:46.873Z,21.7
2016-05-29T01:05:56.782Z,21.7
2016-05-29T01:06:07.391Z,21.7
2016-05-29T01:06:16.798Z,21.7
2016-05-29T01:06:26.735Z,21.7
2016-05-29T01:06:36.563Z,21.7
2016-05-29T01:06:46.548Z,21.7
2016-05-29T01:06:56.691Z,21.7
2016-05-29T01:07:06.691Z,21.7
2016-05-29T01:07:16.676Z,21.8
2016-05-29T01:07:26.660Z,21.8
2016-05-29T01:07:36.644Z,21.7
2016-05-29T01:07:46.644Z,21.7
2016-05-29T01:07:56.475Z,21.7
2016-05-29T01:08:06.615Z,21.7
2016-05-29T01:08:16.615Z,21.7
2016-05-29T01:08:26.600Z,21.7
2016-05-29T01:08:36.584Z,21.8
2016-05-29T01:08:46.568Z,21.8
2016-05-29T01:08:56.415Z,21.7
2016-05-29T01:09:06.556Z,21.7
2016-05-29T01:09:16.540Z,21.7
2016-05-29T01:09:26.384Z,21.6
2016-05-29T01:09:36.524Z,21.8
2016-05-29T01:09:46.509Z,21.7
2016-05-29T01:09:56.511Z,21.7
2016-05-29T01:10:06.495Z,21.6
2016-05-29T01:10:16.480Z,21.7
2016-05-29T01:10:26.480Z,21.6
2016-05-29T01:10:36.480Z,21.6
2016-05-29T01:10:46.292Z,21.6
2016-05-29T01:10:56.295Z,21.7
2016-05-29T01:11:06.436Z,21.7
2016-05-29T01:11:16.420Z,21.7
2016-05-29T01:11:26.404Z,21.7
2016-05-29T01:11:36.404Z,21.6
2016-05-29T01:11:46.233Z,21.7
2016-05-29T01:11:56.376Z,21.6
2016-05-29T01:12:06.220Z,21.7
2016-05-29T01:12:16.361Z,21.7
2016-05-29T01:12:26.361Z,21.7
2016-05-29T01:12:36.345Z,21.6
2016-05-29T01:12:46.329Z,21.7
2016-05-29T01:12:56.316Z,21.7
2016-05-29T01:13:06.159Z,21.7
2016-05-29T01:13:16.300Z,21.6
2016-05-29T01:13:26.284Z,21.7
2016-05-29T01:13:36.269Z,21.6
2016-05-29T01:13:46.253Z,21.6
2016-05-29T01:13:56.272Z,21.7
2016-05-29T01:14:06.241Z,21.6
2016-05-29T01:14:16.225Z,21.6
2016-05-29T01:14:26.069Z,21.6
2016-05-29T01:14:36.209Z,21.6
2016-05-29T01:14:46.037Z,21.6
2016-05-29T01:14:56.197Z,21.6
2016-05-29T01:15:06.025Z,21.6
2016-05-29T01:15:16.165Z,21.6
2016-05-29T01:15:26.009Z,21.6
2016-05-29T01:15:36.009Z,21.7
2016-05-29T01:15:46.150Z,21.6
2016-05-29T01:15:56.153Z,21.6
2016-05-29T01:16:05.965Z,21.6
2016-05-29T01:16:16.106Z,21.6
2016-05-29T01:16:26.106Z,21.6
2016-05-29T01:16:36.090Z,21.6
2016-05-29T01:16:46.075Z,21.6
2016-05-29T01:16:56.061Z,21.5
2016-05-29T01:17:06.061Z,21.6
2016-05-29T01:17:16.045Z,21.6
2016-05-29T01:17:26.030Z,21.6
2016-05-29T01:17:36.030Z,21.6
2016-05-29T01:17:46.014Z,21.5
2016-05-29T01:17:56.033Z,21.5
2016-05-29T01:18:06.002Z,21.6
2016-05-29T01:18:15.845Z,21.6
2016-05-29T01:18:25.970Z,21.6
2016-05-29T01:18:35.955Z,21.6
2016-05-29T01:18:45.955Z,21.6
2016-05-29T01:18:55.942Z,21.5
2016-05-29T01:19:05.786Z,21.5
2016-05-29T01:19:15.926Z,21.6
2016-05-29T01:19:25.911Z,21.6
2016-05-29T01:19:35.895Z,21.5
2016-05-29T01:19:45.895Z,21.6
2016-05-29T01:19:55.882Z,21.6
2016-05-29T01:20:05.866Z,21.6
2016-05-29T01:20:15.991Z,21.6
2016-05-29T01:20:26.757Z,21.7
2016-05-29T01:20:35.835Z,21.5
2016-05-29T01:20:45.678Z,21.6
2016-05-29T01:20:56.025Z,21.6
2016-05-29T01:21:05.838Z,21.6
2016-05-29T01:21:16.697Z,21.4
2016-05-29T01:21:25.791Z,21.6
2016-05-29T01:21:35.775Z,21.6
2016-05-29T01:21:45.760Z,21.5
2016-05-29T01:21:55.606Z,21.5
2016-05-29T01:22:05.747Z,21.6
2016-05-29T01:22:15.747Z,21.5
2016-05-29T01:22:25.716Z,21.6
2016-05-29T01:22:35.716Z,21.5
2016-05-29T01:22:45.700Z,21.5
2016-05-29T01:22:55.686Z,21.5
2016-05-29T01:23:05.702Z,21.6
2016-05-29T01:23:15.671Z,21.5
2016-05-29T01:23:25.655Z,21.5
2016-05-29T01:23:35.655Z,21.5
2016-05-29T01:23:45.640Z,21.5
2016-05-29T01:23:55.627Z,21.4
2016-05-29T01:24:05.611Z,21.5
2016-05-29T01:24:15.611Z,21.5
2016-05-29T01:24:25.596Z,21.3
2016-05-29T01:24:35.596Z,21.4
2016-05-29T01:24:45.580Z,21.3
2016-05-29T01:24:55.567Z,21.4
2016-05-29T01:25:05.552Z,21.4
2016-05-29T01:25:15.552Z,21.4
2016-05-29T01:25:25.536Z,21.4
2016-05-29T01:25:35.521Z,21.4
2016-05-29T01:25:45.364Z,21.3
2016-05-29T01:25:55.508Z,21.4
2016-05-29T01:26:05.492Z,21.4
2016-05-29T01:26:15.492Z,21.4
2016-05-29T01:26:25.477Z,21.3
2016-05-29T01:26:35.461Z,21.3
2016-05-29T01:26:45.445Z,21.4
2016-05-29T01:26:55.447Z,21.4
2016-05-29T01:27:05.432Z,21.2
2016-05-29T01:27:15.416Z,21.3
2016-05-29T01:27:25.401Z,21.2
2016-05-29T01:27:35.401Z,21.3
2016-05-29T01:27:45.401Z,21.3
2016-05-29T01:27:55.372Z,21.3
2016-05-29T01:28:05.372Z,21.3
2016-05-29T01:28:15.200Z,21.3
2016-05-29T01:28:25.341Z,21.2
2016-05-29T01:28:35.185Z,21.3
2016-05-29T01:28:45.325Z,21.3
2016-05-29T01:28:55.313Z,21.2
2016-05-29T01:29:05.313Z,21.2
2016-05-29T01:29:15.157Z,21.2
2016-05-29T01:29:25.125Z,21.1
2016-05-29T01:29:35.266Z,21.2
2016-05-29T01:29:45.266Z,21.2
2016-05-29T01:29:55.097Z,21.3
2016-05-29T01:30:05.253Z,21.2
2016-05-29T01:30:15.081Z,21.2
2016-05-29T01:30:25.222Z,21.2
2016-05-29T01:30:35.206Z,21.1
2016-05-29T01:30:45.206Z,21.2
2016-05-29T01:30:55.193Z,21.1
2016-05-29T01:31:05.193Z,21.1
2016-05-29T01:31:15.162Z,21.2
2016-05-29T01:31:25.162Z,21.1
2016-05-29T01:31:35.146Z,21
2016-05-29T01:31:45.162Z,21
2016-05-29T01:31:55.118Z,21
2016-05-29T01:32:05.118Z,21.1
2016-05-29T01:32:14.946Z,21.1
2016-05-29T01:32:25.102Z,21.1
2016-05-29T01:32:35.086Z,21
2016-05-29T01:32:45.071Z,21
2016-05-29T01:32:55.074Z,21
2016-05-29T01:33:05.058Z,21
2016-05-29T01:33:15.043Z,21
2016-05-29T01:33:24.886Z,20.9
2016-05-29T01:33:35.027Z,21.1
2016-05-29T01:33:45.011Z,20.9
2016-05-29T01:33:54.998Z,21
2016-05-29T01:34:04.982Z,20.9
2016-05-29T01:34:14.982Z,21
2016-05-29T01:34:24.982Z,20.9
2016-05-29T01:34:34.966Z,21
2016-05-29T01:34:44.951Z,20.9
2016-05-29T01:34:54.782Z,21
2016-05-29T01:35:04.938Z,21
2016-05-29T01:35:15.204Z,20.8
2016-05-29T01:35:25.344Z,20.9
2016-05-29T01:35:35.001Z,20.9
2016-05-29T01:35:44.891Z,20.9
2016-05-29T01:35:54.879Z,20.9
2016-05-29T01:36:05.238Z,20.9
2016-05-29T01:36:14.707Z,20.8
2016-05-29T01:36:25.207Z,20.8
2016-05-29T01:36:34.832Z,20.8
2016-05-29T01:36:44.676Z,20.8
2016-05-29T01:36:54.818Z,20.8
2016-05-29T01:37:04.818Z,20.8
2016-05-29T01:37:14.787Z,20.8
2016-05-29T01:37:24.787Z,20.8
2016-05-29T01:37:34.771Z,20.8
2016-05-29T01:37:44.756Z,20.7
2016-05-29T01:37:54.602Z,20.7
2016-05-29T01:38:04.743Z,20.7
2016-05-29T01:38:14.727Z,20.6
2016-05-29T01:38:24.712Z,20.8
2016-05-29T01:38:34.556Z,20.6
2016-05-29T01:38:44.696Z,20.6
2016-05-29T01:38:54.684Z,20.7
2016-05-29T01:39:04.668Z,20.6
2016-05-29T01:39:14.512Z,20.7
2016-05-29T01:39:24.652Z,20.7
2016-05-29T01:39:34.637Z,20.6
2016-05-29T01:39:44.480Z,20.7
2016-05-29T01:39:54.623Z,20.7
2016-05-29T01:40:04.607Z,20.6
2016-05-29T01:40:14.607Z,20.6
2016-05-29T01:40:24.607Z,20.6
2016-05-29T01:40:34.576Z,20.6
2016-05-29T01:40:44.576Z,20.7
2016-05-29T01:40:54.564Z,20.6
2016-05-29T01:41:04.548Z,20.6
2016-05-29T01:41:14.532Z,20.5
2016-05-29T01:41:24.532Z,20.6
2016-05-29T01:41:34.360Z,20.6
2016-05-29T01:41:44.517Z,20.6
2016-05-29T01:41:54.504Z,20.5
2016-05-29T01:42:04.488Z,20.6
2016-05-29T01:42:14.332Z,20.6
2016-05-29T01:42:24.457Z,20.7
2016-05-29T01:42:34.457Z,20.6
2016-05-29T01:42:44.442Z,20.6
2016-05-29T01:42:54.287Z,20.6
2016-05-29T01:43:04.428Z,20.7
2016-05-29T01:43:14.412Z,20.7
2016-05-29T01:43:24.256Z,20.7
2016-05-29T01:43:34.397Z,20.6
2016-05-29T01:43:44.381Z,20.7
2016-05-29T01:43:54.368Z,20.6
2016-05-29T01:44:04.353Z,20.6
2016-05-29T01:44:14.353Z,20.5
2016-05-29T01:44:24.337Z,20.6
2016-05-29T01:44:34.181Z,20.8
2016-05-29T01:44:44.322Z,20.6
2016-05-29T01:44:54.309Z,20.6
2016-05-29T01:45:04.293Z,20.6
2016-05-29T01:45:14.293Z,20.6
2016-05-29T01:45:24.278Z,20.6
2016-05-29T01:45:34.262Z,20.6
2016-05-29T01:45:44.246Z,20.5
2016-05-29T01:45:54.093Z,20.6
2016-05-29T01:46:04.234Z,20.6
2016-05-29T01:46:14.218Z,20.6
2016-05-29T01:46:24.218Z,20.6
2016-05-29T01:46:34.203Z,20.6
2016-05-29T01:46:44.203Z,20.6
2016-05-29T01:46:54.173Z,20.6
2016-05-29T01:47:04.173Z,20.7
2016-05-29T01:47:14.158Z,20.7
2016-05-29T01:47:24.001Z,20.6
2016-05-29T01:47:34.142Z,20.7
2016-05-29T01:47:44.126Z,20.6
2016-05-29T01:47:54.114Z,20.7
2016-05-29T01:48:04.114Z,20.7
2016-05-29T01:48:14.098Z,20.7
2016-05-29T01:48:23.926Z,20.7
2016-05-29T01:48:34.083Z,20.6
2016-05-29T01:48:44.067Z,20.7
2016-05-29T01:48:54.053Z,20.7
2016-05-29T01:49:04.038Z,20.7
2016-05-29T01:49:13.881Z,20.7
2016-05-29T01:49:24.022Z,20.7
2016-05-29T01:49:33.866Z,20.7
2016-05-29T01:49:43.991Z,20.7
2016-05-29T01:49:53.994Z,20.6
2016-05-29T01:50:03.978Z,20.6
2016-05-29T01:50:14.494Z,20.7
2016-05-29T01:50:23.822Z,20.6
2016-05-29T01:50:33.963Z,20.7
2016-05-29T01:50:44.166Z,20.6
2016-05-29T01:50:53.950Z,20.7
2016-05-29T01:51:05.169Z,20.6
2016-05-29T01:51:14.184Z,20.7
2016-05-29T01:51:23.903Z,20.7
2016-05-29T01:51:33.731Z,20.8
2016-05-29T01:51:43.887Z,20.7
2016-05-29T01:51:53.874Z,20.7
2016-05-29T01:52:03.858Z,20.8
2016-05-29T01:52:13.843Z,20.6
2016-05-29T01:52:23.827Z,20.7
2016-05-29T01:52:33.827Z,20.6
2016-05-29T01:52:43.686Z,20.7
2016-05-29T01:52:53.799Z,20.8
2016-05-29T01:53:03.799Z,20.8
2016-05-29T01:53:13.627Z,20.8
2016-05-29T01:53:23.627Z,20.7
2016-05-29T01:53:33.611Z,20.8
2016-05-29T01:53:43.596Z,20.8
2016-05-29T01:53:53.739Z,20.6
2016-05-29T01:54:03.724Z,20.7
2016-05-29T01:54:13.724Z,20.7
2016-05-29T01:54:23.708Z,20.6
2016-05-29T01:54:33.708Z,20.8
2016-05-29T01:54:43.677Z,20.6
2016-05-29T01:54:53.679Z,20.8
2016-05-29T01:55:03.663Z,20.7
2016-05-29T01:55:13.647Z,20.8
2016-05-29T01:55:23.647Z,20.7
2016-05-29T01:55:33.632Z,20.8
2016-05-29T01:55:43.616Z,20.7
2016-05-29T01:55:53.604Z,20.8
2016-05-29T01:56:03.604Z,20.7
2016-05-29T01:56:13.604Z,20.7
2016-05-29T01:56:23.572Z,20.7
2016-05-29T01:56:33.572Z,20.7
2016-05-29T01:56:43.557Z,20.7
2016-05-29T01:56:53.560Z,20.7
2016-05-29T01:57:03.544Z,20.8
2016-05-29T01:57:13.528Z,20.7
2016-05-29T01:57:23.513Z,20.8
2016-05-29T01:57:33.357Z,20.7
2016-05-29T01:57:43.497Z,20.6
2016-05-29T01:57:53.499Z,20.6
2016-05-29T01:58:03.484Z,20.7
2016-05-29T01:58:13.468Z,20.8
2016-05-29T01:58:23.452Z,20.6
2016-05-29T01:58:33.437Z,20.8
2016-05-29T01:58:43.280Z,20.7
2016-05-29T01:58:53.425Z,20.7
2016-05-29T01:59:03.409Z,20.7
2016-05-29T01:59:13.409Z,20.6
2016-05-29T01:59:23.394Z,20.6
2016-05-29T01:59:33.378Z,20.6
2016-05-29T01:59:43.363Z,20.5
2016-05-29T01:59:53.365Z,20.6
2016-05-29T02:00:03.349Z,20.6
2016-05-29T02:00:13.333Z,20.6
2016-05-29T02:00:23.333Z,20.6
2016-05-29T02:00:33.318Z,20.7
2016-05-29T02:00:43.302Z,20.6
2016-05-29T02:00:53.289Z,20.5
2016-05-29T02:01:03.289Z,20.6
2016-05-29T02:01:13.274Z,20.6
2016-05-29T02:01:23.274Z,20.5
2016-05-29T02:01:33.258Z,20.4
2016-05-29T02:01:43.243Z,20.4
2016-05-29T02:01:53.088Z,20.5
2016-05-29T02:02:03.229Z,20.4
2016-05-29T02:02:13.213Z,20.4
2016-05-29T02:02:23.041Z,20.4
2016-05-29T02:02:33.182Z,20.5
2016-05-29T02:02:43.182Z,20.4
2016-05-29T02:02:53.169Z,20.5
2016-05-29T02:03:02.998Z,20.4
2016-05-29T02:03:13.138Z,20.5
2016-05-29T02:03:23.138Z,20.4
2016-05-29T02:03:33.123Z,20.4
2016-05-29T02:03:43.123Z,20.3
2016-05-29T02:03:53.110Z,20.4
2016-05-29T02:04:03.094Z,20.4
2016-05-29T02:04:13.079Z,20.4
2016-05-29T02:04:23.063Z,20.4
2016-05-29T02:04:33.063Z,20.3
2016-05-29T02:04:43.047Z,20.4
2016-05-29T02:04:53.035Z,20.4
2016-05-29T02:05:03.035Z,20.3
2016-05-29T02:05:14.019Z,20.3
2016-05-29T02:05:23.004Z,20.4
2016-05-29T02:05:33.425Z,20.3
2016-05-29T02:05:43.019Z,20.2
2016-05-29T02:05:53.335Z,20.3
2016-05-29T02:06:03.803Z,20.3
2016-05-29T02:06:12.819Z,20.4
2016-05-29T02:06:22.944Z,20.4
2016-05-29T02:06:32.944Z,20.6
2016-05-29T02:06:42.928Z,20.3
2016-05-29T02:06:52.914Z,20.4
2016-05-29T02:07:02.898Z,20.4
2016-05-29T02:07:12.898Z,20.4
2016-05-29T02:07:22.898Z,20.4
2016-05-29T02:07:32.867Z,20.3
2016-05-29T02:07:42.867Z,20.3
2016-05-29T02:07:52.715Z,20.4
2016-05-29T02:08:02.840Z,20.3
2016-05-29T02:08:12.855Z,20.3
2016-05-29T02:08:22.824Z,20.3
2016-05-29T02:08:32.808Z,20.3
2016-05-29T02:08:42.793Z,20.3
2016-05-29T02:08:52.780Z,20.2
2016-05-29T02:09:02.765Z,20.2
2016-05-29T02:09:12.765Z,20.4
2016-05-29T02:09:22.749Z,20.2
2016-05-29T02:09:32.749Z,20.2
2016-05-29T02:09:42.733Z,20.3
2016-05-29T02:09:52.720Z,20.2
2016-05-29T02:10:02.720Z,20.2
2016-05-29T02:10:12.704Z,20.3
2016-05-29T02:10:22.688Z,20.2
2016-05-29T02:10:32.688Z,20.3
2016-05-29T02:10:42.657Z,20.2
2016-05-29T02:10:52.659Z,20.2
2016-05-29T02:11:02.644Z,20.3
2016-05-29T02:11:12.503Z,20.2
2016-05-29T02:11:22.628Z,20.2
2016-05-29T02:11:32.612Z,20.2
2016-05-29T02:11:42.597Z,20.2
2016-05-29T02:11:52.601Z,20.2
2016-05-29T02:12:02.585Z,20.2
2016-05-29T02:12:12.569Z,20.2
2016-05-29T02:12:22.554Z,20.2
2016-05-29T02:12:32.554Z,20.3
2016-05-29T02:12:42.538Z,20.2
2016-05-29T02:12:52.525Z,20.2
2016-05-29T02:13:02.525Z,20.2
2016-05-29T02:13:12.509Z,20.2